sensor_id;sensor_type;location;lat;lon;timestamp;P1;durP1;ratioP1;P2;durP2;ratioP2
58876;SDS011;44659;47.002;9.536;2024-02-04T00:02:18;4.05;;;1.65;;
58876;SDS011;44659;47.002;9.536;2024-02-04T00:04:45;4.55;;;2.08;;
58876;SDS011;44659;47.002;9.536;2024-02-04T00:07:11;3.38;;;1.70;;
58876;SDS011;44659;47.002;9.536;2024-02-04T00:09:36;5.20;;;1.90;;
58876;SDS011;44659;47.002;9.536;2024-02-04T00:12:02;5.15;;;1.60;;
58876;SDS011;44659;47.002;9.536;2024-02-04T00:14:29;3.72;;;1.52;;
58876;SDS011;44659;47.002;9.536;2024-02-04T00:16:54;2.70;;;1.42;;
58876;SDS011;44659;47.002;9.536;2024-02-04T00:19:19;2.83;;;1.48;;
58876;SDS011;44659;47.002;9.536;2024-02-04T00:21:45;3.47;;;1.55;;
58876;SDS011;44659;47.002;9.536;2024-02-04T00:24:10;5.95;;;1.90;;
58876;SDS011;44659;47.002;9.536;2024-02-04T00:26:36;4.90;;;1.70;;
58876;SDS011;44659;47.002;9.536;2024-02-04T00:29:01;4.43;;;1.60;;
58876;SDS011;44659;47.002;9.536;2024-02-04T00:31:26;3.00;;;1.50;;
58876;SDS011;44659;47.002;9.536;2024-02-04T00:33:52;3.47;;;1.50;;
58876;SDS011;44659;47.002;9.536;2024-02-04T00:36:17;2.72;;;1.33;;
58876;SDS011;44659;47.002;9.536;2024-02-04T00:38:44;3.42;;;1.25;;
58876;SDS011;44659;47.002;9.536;2024-02-04T00:41:09;4.68;;;1.85;;
58876;SDS011;44659;47.002;9.536;2024-02-04T00:43:35;4.53;;;1.95;;
58876;SDS011;44659;47.002;9.536;2024-02-04T00:46:00;4.05;;;1.65;;
58876;SDS011;44659;47.002;9.536;2024-02-04T00:48:26;8.32;;;2.22;;
58876;SDS011;44659;47.002;9.536;2024-02-04T00:50:55;8.30;;;2.40;;
58876;SDS011;44659;47.002;9.536;2024-02-04T00:53:20;8.05;;;1.90;;
58876;SDS011;44659;47.002;9.536;2024-02-04T00:55:46;9.23;;;2.10;;
58876;SDS011;44659;47.002;9.536;2024-02-04T00:58:11;4.57;;;1.63;;
58876;SDS011;44659;47.002;9.536;2024-02-04T01:00:36;5.45;;;1.85;;
58876;SDS011;44659;47.002;9.536;2024-02-04T01:03:02;3.85;;;1.70;;
58876;SDS011;44659;47.002;9.536;2024-02-04T01:05:27;4.55;;;1.90;;
58876;SDS011;44659;47.002;9.536;2024-02-04T01:07:52;4.03;;;1.90;;
58876;SDS011;44659;47.002;9.536;2024-02-04T01:10:18;4.07;;;1.98;;
58876;SDS011;44659;47.002;9.536;2024-02-04T01:12:43;4.05;;;1.90;;
58876;SDS011;44659;47.002;9.536;2024-02-04T01:15:09;3.45;;;1.60;;
58876;SDS011;44659;47.002;9.536;2024-02-04T01:17:34;4.85;;;2.15;;
58876;SDS011;44659;47.002;9.536;2024-02-04T01:20:00;4.18;;;2.13;;
58876;SDS011;44659;47.002;9.536;2024-02-04T01:22:25;3.83;;;1.85;;
58876;SDS011;44659;47.002;9.536;2024-02-04T01:24:52;3.90;;;1.77;;
58876;SDS011;44659;47.002;9.536;2024-02-04T01:27:17;5.88;;;2.13;;
58876;SDS011;44659;47.002;9.536;2024-02-04T01:29:43;4.05;;;2.00;;
58876;SDS011;44659;47.002;9.536;2024-02-04T01:32:08;4.15;;;1.85;;
58876;SDS011;44659;47.002;9.536;2024-02-04T01:34:34;3.50;;;1.77;;
58876;SDS011;44659;47.002;9.536;2024-02-04T01:36:59;9.27;;;3.20;;
58876;SDS011;44659;47.002;9.536;2024-02-04T01:39:24;4.40;;;2.08;;
58876;SDS011;44659;47.002;9.536;2024-02-04T01:41:50;4.05;;;1.98;;
58876;SDS011;44659;47.002;9.536;2024-02-04T01:44:16;4.50;;;2.05;;
58876;SDS011;44659;47.002;9.536;2024-02-04T01:46:42;5.15;;;1.73;;
58876;SDS011;44659;47.002;9.536;2024-02-04T01:49:07;6.15;;;1.92;;
58876;SDS011;44659;47.002;9.536;2024-02-04T01:51:33;3.65;;;1.80;;
58876;SDS011;44659;47.002;9.536;2024-02-04T01:53:59;5.13;;;2.00;;
58876;SDS011;44659;47.002;9.536;2024-02-04T01:56:24;4.85;;;1.58;;
58876;SDS011;44659;47.002;9.536;2024-02-04T01:58:50;4.68;;;1.60;;
58876;SDS011;44659;47.002;9.536;2024-02-04T02:01:15;4.10;;;1.65;;
58876;SDS011;44659;47.002;9.536;2024-02-04T02:03:41;4.22;;;1.67;;
58876;SDS011;44659;47.002;9.536;2024-02-04T02:06:06;3.22;;;1.70;;
58876;SDS011;44659;47.002;9.536;2024-02-04T02:08:32;5.25;;;2.00;;
58876;SDS011;44659;47.002;9.536;2024-02-04T02:11:08;3.08;;;1.70;;
58876;SDS011;44659;47.002;9.536;2024-02-04T02:13:36;3.55;;;1.83;;
58876;SDS011;44659;47.002;9.536;2024-02-04T02:16:07;4.68;;;1.80;;
58876;SDS011;44659;47.002;9.536;2024-02-04T02:18:39;7.20;;;2.00;;
58876;SDS011;44659;47.002;9.536;2024-02-04T02:23:48;5.30;;;2.22;;
58876;SDS011;44659;47.002;9.536;2024-02-04T02:26:17;4.75;;;2.00;;
58876;SDS011;44659;47.002;9.536;2024-02-04T02:28:44;5.25;;;2.08;;
58876;SDS011;44659;47.002;9.536;2024-02-04T02:31:09;4.65;;;2.15;;
58876;SDS011;44659;47.002;9.536;2024-02-04T02:33:35;7.28;;;2.30;;
58876;SDS011;44659;47.002;9.536;2024-02-04T02:36:02;4.43;;;2.10;;
58876;SDS011;44659;47.002;9.536;2024-02-04T02:38:42;4.68;;;1.90;;
58876;SDS011;44659;47.002;9.536;2024-02-04T02:41:09;3.80;;;1.63;;
58876;SDS011;44659;47.002;9.536;2024-02-04T02:43:35;4.43;;;1.77;;
58876;SDS011;44659;47.002;9.536;2024-02-04T02:46:01;4.07;;;2.05;;
58876;SDS011;44659;47.002;9.536;2024-02-04T02:48:26;4.53;;;1.92;;
58876;SDS011;44659;47.002;9.536;2024-02-04T02:50:53;4.43;;;1.92;;
58876;SDS011;44659;47.002;9.536;2024-02-04T02:53:18;4.50;;;1.73;;
58876;SDS011;44659;47.002;9.536;2024-02-04T02:55:45;6.13;;;1.80;;
58876;SDS011;44659;47.002;9.536;2024-02-04T02:58:12;5.53;;;2.40;;
58876;SDS011;44659;47.002;9.536;2024-02-04T03:00:37;5.03;;;2.00;;
58876;SDS011;44659;47.002;9.536;2024-02-04T03:03:03;4.07;;;2.08;;
58876;SDS011;44659;47.002;9.536;2024-02-04T03:05:28;4.75;;;1.77;;
58876;SDS011;44659;47.002;9.536;2024-02-04T03:07:54;6.60;;;1.98;;
58876;SDS011;44659;47.002;9.536;2024-02-04T03:10:19;3.03;;;1.70;;
58876;SDS011;44659;47.002;9.536;2024-02-04T03:12:44;4.28;;;1.55;;
58876;SDS011;44659;47.002;9.536;2024-02-04T03:15:10;4.82;;;1.83;;
58876;SDS011;44659;47.002;9.536;2024-02-04T03:17:35;3.00;;;1.75;;
58876;SDS011;44659;47.002;9.536;2024-02-04T03:20:01;3.17;;;1.67;;
58876;SDS011;44659;47.002;9.536;2024-02-04T03:22:26;3.90;;;1.90;;
58876;SDS011;44659;47.002;9.536;2024-02-04T03:24:51;5.40;;;1.88;;
58876;SDS011;44659;47.002;9.536;2024-02-04T03:27:17;4.38;;;1.73;;
58876;SDS011;44659;47.002;9.536;2024-02-04T03:29:43;5.15;;;1.60;;
58876;SDS011;44659;47.002;9.536;2024-02-04T03:32:10;8.00;;;2.10;;
58876;SDS011;44659;47.002;9.536;2024-02-04T03:34:35;5.43;;;2.00;;
58876;SDS011;44659;47.002;9.536;2024-02-04T03:37:01;4.05;;;1.80;;
58876;SDS011;44659;47.002;9.536;2024-02-04T03:39:26;5.30;;;1.85;;
58876;SDS011;44659;47.002;9.536;2024-02-04T03:41:52;6.03;;;1.80;;
58876;SDS011;44659;47.002;9.536;2024-02-04T03:44:17;4.38;;;1.80;;
58876;SDS011;44659;47.002;9.536;2024-02-04T03:46:42;5.18;;;2.22;;
58876;SDS011;44659;47.002;9.536;2024-02-04T03:49:08;4.15;;;1.63;;
58876;SDS011;44659;47.002;9.536;2024-02-04T03:51:34;9.95;;;1.90;;
58876;SDS011;44659;47.002;9.536;2024-02-04T03:53:59;4.03;;;2.00;;
58876;SDS011;44659;47.002;9.536;2024-02-04T03:56:25;4.78;;;2.00;;
58876;SDS011;44659;47.002;9.536;2024-02-04T03:58:50;3.67;;;1.90;;
58876;SDS011;44659;47.002;9.536;2024-02-04T04:01:15;3.95;;;1.67;;
58876;SDS011;44659;47.002;9.536;2024-02-04T04:03:42;7.82;;;2.17;;
58876;SDS011;44659;47.002;9.536;2024-02-04T04:06:07;4.22;;;1.75;;
58876;SDS011;44659;47.002;9.536;2024-02-04T04:08:34;3.42;;;1.77;;
58876;SDS011;44659;47.002;9.536;2024-02-04T04:10:59;5.03;;;1.90;;
58876;SDS011;44659;47.002;9.536;2024-02-04T04:13:26;4.18;;;1.75;;
58876;SDS011;44659;47.002;9.536;2024-02-04T04:15:51;5.90;;;1.88;;
58876;SDS011;44659;47.002;9.536;2024-02-04T04:18:17;6.50;;;1.90;;
58876;SDS011;44659;47.002;9.536;2024-02-04T04:20:42;5.55;;;1.80;;
58876;SDS011;44659;47.002;9.536;2024-02-04T04:23:07;4.38;;;1.70;;
58876;SDS011;44659;47.002;9.536;2024-02-04T04:25:33;5.40;;;1.70;;
58876;SDS011;44659;47.002;9.536;2024-02-04T04:27:58;5.85;;;2.60;;
58876;SDS011;44659;47.002;9.536;2024-02-04T04:30:24;3.75;;;1.70;;
58876;SDS011;44659;47.002;9.536;2024-02-04T04:32:49;4.97;;;1.58;;
58876;SDS011;44659;47.002;9.536;2024-02-04T04:35:15;4.20;;;1.73;;
58876;SDS011;44659;47.002;9.536;2024-02-04T04:37:40;4.13;;;1.92;;
58876;SDS011;44659;47.002;9.536;2024-02-04T04:40:06;3.67;;;1.90;;
58876;SDS011;44659;47.002;9.536;2024-02-04T04:42:32;4.13;;;1.83;;
58876;SDS011;44659;47.002;9.536;2024-02-04T04:44:57;4.35;;;2.10;;
58876;SDS011;44659;47.002;9.536;2024-02-04T04:47:22;3.90;;;1.80;;
58876;SDS011;44659;47.002;9.536;2024-02-04T04:49:48;3.50;;;1.63;;
58876;SDS011;44659;47.002;9.536;2024-02-04T04:52:13;4.05;;;1.90;;
58876;SDS011;44659;47.002;9.536;2024-02-04T04:54:39;3.50;;;1.90;;
58876;SDS011;44659;47.002;9.536;2024-02-04T04:57:05;4.38;;;2.13;;
58876;SDS011;44659;47.002;9.536;2024-02-04T04:59:30;4.43;;;1.77;;
58876;SDS011;44659;47.002;9.536;2024-02-04T05:01:55;4.57;;;2.15;;
58876;SDS011;44659;47.002;9.536;2024-02-04T05:04:21;3.88;;;1.95;;
58876;SDS011;44659;47.002;9.536;2024-02-04T05:06:50;6.97;;;2.20;;
58876;SDS011;44659;47.002;9.536;2024-02-04T05:09:16;4.07;;;1.80;;
58876;SDS011;44659;47.002;9.536;2024-02-04T05:11:41;5.38;;;2.10;;
58876;SDS011;44659;47.002;9.536;2024-02-04T05:14:07;3.53;;;1.70;;
58876;SDS011;44659;47.002;9.536;2024-02-04T05:16:33;5.72;;;2.22;;
58876;SDS011;44659;47.002;9.536;2024-02-04T05:18:58;5.63;;;2.40;;
58876;SDS011;44659;47.002;9.536;2024-02-04T05:21:24;6.22;;;2.50;;
58876;SDS011;44659;47.002;9.536;2024-02-04T05:23:49;4.50;;;2.00;;
58876;SDS011;44659;47.002;9.536;2024-02-04T05:26:17;7.93;;;2.17;;
58876;SDS011;44659;47.002;9.536;2024-02-04T05:28:42;4.68;;;2.35;;
58876;SDS011;44659;47.002;9.536;2024-02-04T05:31:08;6.13;;;2.35;;
58876;SDS011;44659;47.002;9.536;2024-02-04T05:33:33;6.32;;;2.58;;
58876;SDS011;44659;47.002;9.536;2024-02-04T05:35:59;5.95;;;2.13;;
58876;SDS011;44659;47.002;9.536;2024-02-04T05:38:24;5.65;;;2.20;;
58876;SDS011;44659;47.002;9.536;2024-02-04T05:40:50;9.90;;;2.10;;
58876;SDS011;44659;47.002;9.536;2024-02-04T05:43:15;6.07;;;1.95;;
58876;SDS011;44659;47.002;9.536;2024-02-04T05:45:41;4.43;;;2.13;;
58876;SDS011;44659;47.002;9.536;2024-02-04T05:48:07;4.80;;;2.20;;
58876;SDS011;44659;47.002;9.536;2024-02-04T05:50:32;4.03;;;2.03;;
58876;SDS011;44659;47.002;9.536;2024-02-04T05:52:58;4.30;;;2.05;;
58876;SDS011;44659;47.002;9.536;2024-02-04T05:55:23;6.45;;;2.10;;
58876;SDS011;44659;47.002;9.536;2024-02-04T05:57:48;4.30;;;2.28;;
58876;SDS011;44659;47.002;9.536;2024-02-04T06:00:14;4.68;;;1.70;;
58876;SDS011;44659;47.002;9.536;2024-02-04T06:02:39;4.88;;;2.13;;
58876;SDS011;44659;47.002;9.536;2024-02-04T06:05:05;4.93;;;1.88;;
58876;SDS011;44659;47.002;9.536;2024-02-04T06:07:30;4.25;;;2.05;;
58876;SDS011;44659;47.002;9.536;2024-02-04T06:09:56;5.28;;;1.80;;
58876;SDS011;44659;47.002;9.536;2024-02-04T06:12:21;7.60;;;2.10;;
58876;SDS011;44659;47.002;9.536;2024-02-04T06:14:47;4.07;;;1.80;;
58876;SDS011;44659;47.002;9.536;2024-02-04T06:17:12;4.55;;;1.90;;
58876;SDS011;44659;47.002;9.536;2024-02-04T06:19:38;4.82;;;2.38;;
58876;SDS011;44659;47.002;9.536;2024-02-04T06:22:03;4.60;;;2.00;;
58876;SDS011;44659;47.002;9.536;2024-02-04T06:24:28;4.68;;;2.17;;
58876;SDS011;44659;47.002;9.536;2024-02-04T06:26:54;3.92;;;1.90;;
58876;SDS011;44659;47.002;9.536;2024-02-04T06:29:19;5.05;;;2.00;;
58876;SDS011;44659;47.002;9.536;2024-02-04T06:31:45;5.10;;;2.15;;
58876;SDS011;44659;47.002;9.536;2024-02-04T06:34:11;7.35;;;1.83;;
58876;SDS011;44659;47.002;9.536;2024-02-04T06:36:36;5.63;;;2.00;;
58876;SDS011;44659;47.002;9.536;2024-02-04T06:39:02;4.35;;;1.73;;
58876;SDS011;44659;47.002;9.536;2024-02-04T06:41:27;3.78;;;1.52;;
58876;SDS011;44659;47.002;9.536;2024-02-04T06:43:53;5.38;;;2.40;;
58876;SDS011;44659;47.002;9.536;2024-02-04T06:46:25;3.65;;;1.77;;
58876;SDS011;44659;47.002;9.536;2024-02-04T06:48:51;3.42;;;1.80;;
58876;SDS011;44659;47.002;9.536;2024-02-04T06:51:16;4.50;;;2.38;;
58876;SDS011;44659;47.002;9.536;2024-02-04T06:53:42;3.83;;;1.60;;
58876;SDS011;44659;47.002;9.536;2024-02-04T06:56:07;5.90;;;1.92;;
58876;SDS011;44659;47.002;9.536;2024-02-04T06:58:33;5.55;;;2.05;;
58876;SDS011;44659;47.002;9.536;2024-02-04T07:00:58;5.68;;;2.33;;
58876;SDS011;44659;47.002;9.536;2024-02-04T07:03:23;5.70;;;2.35;;
58876;SDS011;44659;47.002;9.536;2024-02-04T07:05:49;6.38;;;2.67;;
58876;SDS011;44659;47.002;9.536;2024-02-04T07:08:14;6.45;;;2.25;;
58876;SDS011;44659;47.002;9.536;2024-02-04T07:10:40;5.93;;;2.80;;
58876;SDS011;44659;47.002;9.536;2024-02-04T07:13:06;6.38;;;2.42;;
58876;SDS011;44659;47.002;9.536;2024-02-04T07:15:33;6.38;;;2.42;;
58876;SDS011;44659;47.002;9.536;2024-02-04T07:17:58;9.85;;;2.60;;
58876;SDS011;44659;47.002;9.536;2024-02-04T07:20:24;7.32;;;2.75;;
58876;SDS011;44659;47.002;9.536;2024-02-04T07:22:49;7.10;;;2.75;;
58876;SDS011;44659;47.002;9.536;2024-02-04T07:25:15;7.53;;;2.30;;
58876;SDS011;44659;47.002;9.536;2024-02-04T07:27:40;6.35;;;2.67;;
58876;SDS011;44659;47.002;9.536;2024-02-04T07:30:06;4.88;;;2.38;;
58876;SDS011;44659;47.002;9.536;2024-02-04T07:32:31;13.93;;;3.03;;
58876;SDS011;44659;47.002;9.536;2024-02-04T07:34:59;5.30;;;2.20;;
58876;SDS011;44659;47.002;9.536;2024-02-04T07:37:24;5.25;;;2.20;;
58876;SDS011;44659;47.002;9.536;2024-02-04T07:39:50;6.80;;;2.45;;
58876;SDS011;44659;47.002;9.536;2024-02-04T07:42:15;5.15;;;2.13;;
58876;SDS011;44659;47.002;9.536;2024-02-04T07:44:41;9.32;;;2.85;;
58876;SDS011;44659;47.002;9.536;2024-02-04T07:47:06;6.55;;;2.45;;
58876;SDS011;44659;47.002;9.536;2024-02-04T07:49:32;5.90;;;2.50;;
58876;SDS011;44659;47.002;9.536;2024-02-04T07:51:57;7.13;;;2.10;;
58876;SDS011;44659;47.002;9.536;2024-02-04T07:54:22;5.40;;;2.28;;
58876;SDS011;44659;47.002;9.536;2024-02-04T07:56:48;5.05;;;2.47;;
58876;SDS011;44659;47.002;9.536;2024-02-04T07:59:13;5.85;;;2.58;;
58876;SDS011;44659;47.002;9.536;2024-02-04T08:01:39;5.85;;;2.40;;
58876;SDS011;44659;47.002;9.536;2024-02-04T08:04:04;4.88;;;1.85;;
58876;SDS011;44659;47.002;9.536;2024-02-04T08:06:31;6.22;;;2.20;;
58876;SDS011;44659;47.002;9.536;2024-02-04T08:08:59;5.65;;;1.90;;
58876;SDS011;44659;47.002;9.536;2024-02-04T08:11:25;6.40;;;2.30;;
58876;SDS011;44659;47.002;9.536;2024-02-04T08:13:50;7.20;;;2.25;;
58876;SDS011;44659;47.002;9.536;2024-02-04T08:16:16;5.80;;;2.47;;
58876;SDS011;44659;47.002;9.536;2024-02-04T08:18:41;7.47;;;2.80;;
58876;SDS011;44659;47.002;9.536;2024-02-04T08:21:07;7.25;;;3.55;;
58876;SDS011;44659;47.002;9.536;2024-02-04T08:23:32;9.73;;;3.92;;
58876;SDS011;44659;47.002;9.536;2024-02-04T08:25:58;9.70;;;5.22;;
58876;SDS011;44659;47.002;9.536;2024-02-04T08:28:24;12.32;;;5.53;;
58876;SDS011;44659;47.002;9.536;2024-02-04T08:30:49;10.43;;;5.72;;
58876;SDS011;44659;47.002;9.536;2024-02-04T08:33:15;10.68;;;6.22;;
58876;SDS011;44659;47.002;9.536;2024-02-04T08:35:40;12.50;;;5.53;;
58876;SDS011;44659;47.002;9.536;2024-02-04T08:38:06;14.57;;;5.75;;
58876;SDS011;44659;47.002;9.536;2024-02-04T08:40:31;9.57;;;5.97;;
58876;SDS011;44659;47.002;9.536;2024-02-04T08:42:57;13.30;;;7.03;;
58876;SDS011;44659;47.002;9.536;2024-02-04T08:45:22;11.50;;;7.30;;
58876;SDS011;44659;47.002;9.536;2024-02-04T08:47:48;11.07;;;7.03;;
58876;SDS011;44659;47.002;9.536;2024-02-04T08:50:13;13.30;;;8.27;;
58876;SDS011;44659;47.002;9.536;2024-02-04T08:52:39;14.02;;;8.52;;
58876;SDS011;44659;47.002;9.536;2024-02-04T08:55:04;12.20;;;7.63;;
58876;SDS011;44659;47.002;9.536;2024-02-04T08:57:30;12.90;;;7.97;;
58876;SDS011;44659;47.002;9.536;2024-02-04T08:59:55;11.85;;;6.88;;
58876;SDS011;44659;47.002;9.536;2024-02-04T09:02:21;11.15;;;7.32;;
58876;SDS011;44659;47.002;9.536;2024-02-04T09:04:46;12.70;;;7.72;;
58876;SDS011;44659;47.002;9.536;2024-02-04T09:07:12;11.48;;;7.18;;
58876;SDS011;44659;47.002;9.536;2024-02-04T09:09:38;11.80;;;6.40;;
58876;SDS011;44659;47.002;9.536;2024-02-04T09:12:03;10.77;;;5.28;;
58876;SDS011;44659;47.002;9.536;2024-02-04T09:14:29;10.65;;;6.60;;
58876;SDS011;44659;47.002;9.536;2024-02-04T09:16:54;8.52;;;4.60;;
58876;SDS011;44659;47.002;9.536;2024-02-04T09:19:20;5.22;;;2.63;;
58876;SDS011;44659;47.002;9.536;2024-02-04T09:21:45;4.18;;;2.33;;
58876;SDS011;44659;47.002;9.536;2024-02-04T09:24:11;3.53;;;1.90;;
58876;SDS011;44659;47.002;9.536;2024-02-04T09:26:36;4.60;;;1.73;;
58876;SDS011;44659;47.002;9.536;2024-02-04T09:29:01;3.70;;;1.20;;
58876;SDS011;44659;47.002;9.536;2024-02-04T09:31:27;2.38;;;1.13;;
58876;SDS011;44659;47.002;9.536;2024-02-04T09:33:53;1.90;;;1.00;;
58876;SDS011;44659;47.002;9.536;2024-02-04T09:36:19;1.95;;;0.90;;
58876;SDS011;44659;47.002;9.536;2024-02-04T09:38:44;2.47;;;1.00;;
58876;SDS011;44659;47.002;9.536;2024-02-04T09:41:09;1.67;;;0.90;;
58876;SDS011;44659;47.002;9.536;2024-02-04T09:43:35;2.42;;;1.02;;
58876;SDS011;44659;47.002;9.536;2024-02-04T09:46:01;2.25;;;1.10;;
58876;SDS011;44659;47.002;9.536;2024-02-04T09:48:31;6.82;;;1.35;;
58876;SDS011;44659;47.002;9.536;2024-02-04T09:50:57;3.75;;;1.50;;
58876;SDS011;44659;47.002;9.536;2024-02-04T09:53:25;5.05;;;1.75;;
58876;SDS011;44659;47.002;9.536;2024-02-04T09:55:53;5.15;;;1.50;;
58876;SDS011;44659;47.002;9.536;2024-02-04T09:58:20;3.28;;;1.20;;
58876;SDS011;44659;47.002;9.536;2024-02-04T10:00:45;2.85;;;1.10;;
58876;SDS011;44659;47.002;9.536;2024-02-04T10:03:12;2.72;;;1.10;;
58876;SDS011;44659;47.002;9.536;2024-02-04T10:05:38;4.57;;;1.20;;
58876;SDS011;44659;47.002;9.536;2024-02-04T10:08:03;3.58;;;1.05;;
58876;SDS011;44659;47.002;9.536;2024-02-04T10:10:29;3.47;;;1.08;;
58876;SDS011;44659;47.002;9.536;2024-02-04T10:12:55;3.35;;;1.10;;
58876;SDS011;44659;47.002;9.536;2024-02-04T10:15:21;2.88;;;1.10;;
58876;SDS011;44659;47.002;9.536;2024-02-04T10:17:46;4.63;;;1.10;;
58876;SDS011;44659;47.002;9.536;2024-02-04T10:20:12;2.13;;;1.20;;
58876;SDS011;44659;47.002;9.536;2024-02-04T10:22:37;3.30;;;1.27;;
58876;SDS011;44659;47.002;9.536;2024-02-04T10:25:09;2.30;;;1.20;;
58876;SDS011;44659;47.002;9.536;2024-02-04T10:27:37;4.40;;;1.60;;
58876;SDS011;44659;47.002;9.536;2024-02-04T10:30:04;4.40;;;2.10;;
58876;SDS011;44659;47.002;9.536;2024-02-04T10:32:30;11.32;;;2.88;;
58876;SDS011;44659;47.002;9.536;2024-02-04T10:34:57;8.15;;;3.83;;
58876;SDS011;44659;47.002;9.536;2024-02-04T10:37:22;10.65;;;4.30;;
58876;SDS011;44659;47.002;9.536;2024-02-04T10:39:48;9.82;;;4.45;;
58876;SDS011;44659;47.002;9.536;2024-02-04T10:42:13;10.27;;;5.10;;
58876;SDS011;44659;47.002;9.536;2024-02-04T10:44:40;14.52;;;6.22;;
58876;SDS011;44659;47.002;9.536;2024-02-04T10:47:08;10.93;;;6.15;;
58876;SDS011;44659;47.002;9.536;2024-02-04T10:49:35;10.85;;;6.50;;
58876;SDS011;44659;47.002;9.536;2024-02-04T10:52:04;12.10;;;7.00;;
58876;SDS011;44659;47.002;9.536;2024-02-04T10:54:31;11.10;;;6.97;;
58876;SDS011;44659;47.002;9.536;2024-02-04T10:57:02;13.10;;;6.97;;
58876;SDS011;44659;47.002;9.536;2024-02-04T10:59:28;11.25;;;6.05;;
58876;SDS011;44659;47.002;9.536;2024-02-04T11:01:55;12.40;;;6.53;;
58876;SDS011;44659;47.002;9.536;2024-02-04T11:04:21;12.57;;;6.63;;
58876;SDS011;44659;47.002;9.536;2024-02-04T11:06:47;12.43;;;7.03;;
58876;SDS011;44659;47.002;9.536;2024-02-04T11:09:13;11.40;;;6.47;;
58876;SDS011;44659;47.002;9.536;2024-02-04T11:11:44;13.05;;;7.93;;
58876;SDS011;44659;47.002;9.536;2024-02-04T11:14:12;13.50;;;8.32;;
58876;SDS011;44659;47.002;9.536;2024-02-04T11:26:41;17.73;;;9.25;;
58876;SDS011;44659;47.002;9.536;2024-02-04T11:29:08;14.52;;;8.07;;
58876;SDS011;44659;47.002;9.536;2024-02-04T11:31:38;15.30;;;9.15;;
58876;SDS011;44659;47.002;9.536;2024-02-04T11:34:04;16.08;;;9.30;;
58876;SDS011;44659;47.002;9.536;2024-02-04T11:36:29;17.55;;;9.50;;
58876;SDS011;44659;47.002;9.536;2024-02-04T11:38:55;15.13;;;9.02;;
58876;SDS011;44659;47.002;9.536;2024-02-04T11:41:24;15.35;;;9.00;;
58876;SDS011;44659;47.002;9.536;2024-02-04T11:43:57;15.25;;;9.00;;
58876;SDS011;44659;47.002;9.536;2024-02-04T11:46:27;15.38;;;8.70;;
58876;SDS011;44659;47.002;9.536;2024-02-04T11:48:53;13.73;;;8.80;;
58876;SDS011;44659;47.002;9.536;2024-02-04T11:51:21;15.40;;;9.20;;
58876;SDS011;44659;47.002;9.536;2024-02-04T11:53:47;14.00;;;8.77;;
58876;SDS011;44659;47.002;9.536;2024-02-04T11:56:12;17.45;;;9.25;;
58876;SDS011;44659;47.002;9.536;2024-02-04T11:58:38;17.42;;;9.80;;
58876;SDS011;44659;47.002;9.536;2024-02-04T12:01:04;13.88;;;8.52;;
58876;SDS011;44659;47.002;9.536;2024-02-04T12:03:30;14.95;;;9.00;;
58876;SDS011;44659;47.002;9.536;2024-02-04T12:05:56;14.60;;;9.00;;
58876;SDS011;44659;47.002;9.536;2024-02-04T12:08:22;14.63;;;8.32;;
58876;SDS011;44659;47.002;9.536;2024-02-04T12:10:48;13.68;;;8.43;;
58876;SDS011;44659;47.002;9.536;2024-02-04T12:13:14;14.10;;;8.15;;
58876;SDS011;44659;47.002;9.536;2024-02-04T12:15:40;12.40;;;7.82;;
58876;SDS011;44659;47.002;9.536;2024-02-04T12:18:07;12.63;;;7.97;;
58876;SDS011;44659;47.002;9.536;2024-02-04T12:20:32;13.48;;;8.45;;
58876;SDS011;44659;47.002;9.536;2024-02-04T12:22:58;13.15;;;7.50;;
58876;SDS011;44659;47.002;9.536;2024-02-04T12:25:23;11.68;;;7.45;;
58876;SDS011;44659;47.002;9.536;2024-02-04T12:27:52;13.45;;;7.50;;
58876;SDS011;44659;47.002;9.536;2024-02-04T12:30:18;12.00;;;7.28;;
58876;SDS011;44659;47.002;9.536;2024-02-04T12:32:43;13.35;;;7.72;;
58876;SDS011;44659;47.002;9.536;2024-02-04T12:35:15;15.43;;;8.20;;
58876;SDS011;44659;47.002;9.536;2024-02-04T12:37:50;14.75;;;8.63;;
58876;SDS011;44659;47.002;9.536;2024-02-04T12:40:29;12.18;;;7.40;;
58876;SDS011;44659;47.002;9.536;2024-02-04T12:42:55;16.10;;;7.90;;
58876;SDS011;44659;47.002;9.536;2024-02-04T12:45:25;13.13;;;7.82;;
58876;SDS011;44659;47.002;9.536;2024-02-04T12:47:55;14.02;;;7.90;;
58876;SDS011;44659;47.002;9.536;2024-02-04T12:50:20;14.05;;;7.20;;
58876;SDS011;44659;47.002;9.536;2024-02-04T12:52:47;12.75;;;7.38;;
58876;SDS011;44659;47.002;9.536;2024-02-04T12:55:22;13.35;;;7.50;;
58876;SDS011;44659;47.002;9.536;2024-02-04T12:57:48;11.90;;;7.28;;
58876;SDS011;44659;47.002;9.536;2024-02-04T13:00:17;14.38;;;7.00;;
58876;SDS011;44659;47.002;9.536;2024-02-04T13:02:42;11.40;;;6.78;;
58876;SDS011;44659;47.002;9.536;2024-02-04T13:05:08;11.68;;;7.55;;
58876;SDS011;44659;47.002;9.536;2024-02-04T13:07:36;11.98;;;7.40;;
58876;SDS011;44659;47.002;9.536;2024-02-04T13:10:01;13.20;;;8.32;;
58876;SDS011;44659;47.002;9.536;2024-02-04T13:12:27;12.50;;;7.32;;
58876;SDS011;44659;47.002;9.536;2024-02-04T13:14:52;11.07;;;7.55;;
58876;SDS011;44659;47.002;9.536;2024-02-04T13:17:18;10.55;;;6.47;;
58876;SDS011;44659;47.002;9.536;2024-02-04T13:19:43;12.25;;;7.05;;
58876;SDS011;44659;47.002;9.536;2024-02-04T13:22:09;19.30;;;8.98;;
58876;SDS011;44659;47.002;9.536;2024-02-04T13:24:35;11.57;;;7.13;;
58876;SDS011;44659;47.002;9.536;2024-02-04T13:27:01;10.98;;;6.85;;
58876;SDS011;44659;47.002;9.536;2024-02-04T13:29:27;14.02;;;8.50;;
58876;SDS011;44659;47.002;9.536;2024-02-04T13:31:52;14.77;;;7.43;;
58876;SDS011;44659;47.002;9.536;2024-02-04T13:34:17;13.65;;;7.55;;
58876;SDS011;44659;47.002;9.536;2024-02-04T13:36:44;13.65;;;8.13;;
58876;SDS011;44659;47.002;9.536;2024-02-04T13:39:10;11.45;;;7.22;;
58876;SDS011;44659;47.002;9.536;2024-02-04T13:41:37;10.98;;;7.10;;
58876;SDS011;44659;47.002;9.536;2024-02-04T13:44:03;11.63;;;6.82;;
58876;SDS011;44659;47.002;9.536;2024-02-04T13:46:28;11.75;;;7.38;;
58876;SDS011;44659;47.002;9.536;2024-02-04T13:48:54;9.93;;;6.18;;
58876;SDS011;44659;47.002;9.536;2024-02-04T13:51:20;12.05;;;6.35;;
58876;SDS011;44659;47.002;9.536;2024-02-04T13:53:45;10.80;;;5.78;;
58876;SDS011;44659;47.002;9.536;2024-02-04T13:56:11;11.15;;;6.55;;
58876;SDS011;44659;47.002;9.536;2024-02-04T13:58:37;12.48;;;6.10;;
58876;SDS011;44659;47.002;9.536;2024-02-04T14:01:02;12.88;;;6.95;;
58876;SDS011;44659;47.002;9.536;2024-02-04T14:03:28;12.45;;;7.15;;
58876;SDS011;44659;47.002;9.536;2024-02-04T14:05:53;13.98;;;7.15;;
58876;SDS011;44659;47.002;9.536;2024-02-04T14:08:20;15.63;;;7.45;;
58876;SDS011;44659;47.002;9.536;2024-02-04T14:10:46;10.85;;;6.78;;
58876;SDS011;44659;47.002;9.536;2024-02-04T14:13:12;14.80;;;7.13;;
58876;SDS011;44659;47.002;9.536;2024-02-04T14:15:38;16.85;;;8.23;;
58876;SDS011;44659;47.002;9.536;2024-02-04T14:18:04;13.07;;;6.93;;
58876;SDS011;44659;47.002;9.536;2024-02-04T14:20:30;15.70;;;7.38;;
58876;SDS011;44659;47.002;9.536;2024-02-04T14:22:57;12.07;;;6.60;;
58876;SDS011;44659;47.002;9.536;2024-02-04T14:25:23;11.27;;;6.18;;
58876;SDS011;44659;47.002;9.536;2024-02-04T14:27:50;13.48;;;7.03;;
58876;SDS011;44659;47.002;9.536;2024-02-04T14:30:18;13.40;;;8.07;;
58876;SDS011;44659;47.002;9.536;2024-02-04T14:32:44;15.70;;;7.65;;
58876;SDS011;44659;47.002;9.536;2024-02-04T14:35:10;12.50;;;6.43;;
58876;SDS011;44659;47.002;9.536;2024-02-04T14:37:36;14.18;;;7.60;;
58876;SDS011;44659;47.002;9.536;2024-02-04T14:40:02;13.32;;;8.15;;
58876;SDS011;44659;47.002;9.536;2024-02-04T14:42:29;20.27;;;9.50;;
58876;SDS011;44659;47.002;9.536;2024-02-04T14:44:55;14.18;;;7.45;;
58876;SDS011;44659;47.002;9.536;2024-02-04T14:47:20;16.50;;;7.70;;
58876;SDS011;44659;47.002;9.536;2024-02-04T14:49:47;12.82;;;7.72;;